Time,TemperatureF,DewpointF,PressureIn,WindDirection,WindDirectionDegrees,WindSpeedMPH,WindSpeedGustMPH,Humidity,HourlyPrecipIn,Conditions,Clouds,dailyrainin,SolarRadiationWatts/m^2,SoftwareType,DateUTC
2013-08-27 00:01:00,76.0,54.0,-100.00,ENE,70,2.0,5.0,46,0.00,,,0.00,0.000000,,2013-08-27 07:01:00,
2013-08-27 00:12:00,76.0,54.0,-100.00,ENE,70,2.0,5.0,46,0.00,,,0.00,0.000000,,2013-08-27 07:12:00,
2013-08-27 00:42:00,74.0,52.0,-100.00,NE,54,5.0,7.0,47,0.00,,,0.00,0.000000,,2013-08-27 07:42:00,
2013-08-27 00:52:00,74.0,52.0,-100.00,NE,54,5.0,7.0,47,0.00,,,0.00,0.000000,,2013-08-27 07:52:00,
2013-08-27 01:01:00,74.0,52.0,-100.00,NE,54,5.0,7.0,47,0.00,,,0.00,0.000000,,2013-08-27 08:01:00,
2013-08-27 01:11:00,74.0,52.0,-100.00,NE,54,5.0,7.0,47,0.00,,,0.00,0.000000,,2013-08-27 08:11:00,
2013-08-27 01:42:00,72.0,53.0,-100.00,ENE,58,3.0,7.0,51,0.00,,,0.00,0.000000,,2013-08-27 08:42:00,
2013-08-27 01:52:00,72.0,53.0,-100.00,ENE,58,3.0,7.0,51,0.00,,,0.00,0.000000,,2013-08-27 08:52:00,
2013-08-27 02:01:00,72.0,53.0,-100.00,ENE,58,3.0,7.0,51,0.00,,,0.00,0.000000,,2013-08-27 09:01:00,
2013-08-27 02:11:00,72.0,53.0,-100.00,ENE,58,3.0,7.0,51,0.00,,,0.00,0.000000,,2013-08-27 09:11:00,
2013-08-27 02:13:00,71.0,54.0,-100.00,NNE,25,2.0,7.0,54,0.00,,,0.00,0.000000,,2013-08-27 09:13:00,
2013-08-27 02:43:00,71.0,54.0,-100.00,NNE,25,2.0,7.0,54,0.00,,,0.00,0.000000,,2013-08-27 09:43:00,
2013-08-27 02:54:00,71.0,54.0,-100.00,NNE,25,2.0,7.0,54,0.00,,,0.00,0.000000,,2013-08-27 09:54:00,
2013-08-27 03:05:00,71.0,54.0,-100.00,NNE,25,2.0,7.0,54,0.00,,,0.00,0.000000,,2013-08-27 10:05:00,
2013-08-27 03:43:00,71.0,53.0,-100.00,ENE,68,2.0,6.0,53,0.00,,,0.00,0.000000,,2013-08-27 10:43:00,
2013-08-27 03:53:00,71.0,53.0,-100.00,ENE,68,2.0,6.0,53,0.00,,,0.00,0.000000,,2013-08-27 10:53:00,
2013-08-27 04:03:00,71.0,53.0,-100.00,ENE,68,2.0,6.0,53,0.00,,,0.00,0.000000,,2013-08-27 11:03:00,
2013-08-27 04:12:00,71.0,53.0,-100.00,ENE,68,2.0,6.0,53,0.00,,,0.00,0.000000,,2013-08-27 11:12:00,
2013-08-27 04:42:00,70.0,53.0,-100.00,NE,55,2.0,6.0,54,0.00,,,0.00,0.000000,,2013-08-27 11:42:00,
2013-08-27 04:52:00,70.0,53.0,-100.00,NE,55,2.0,6.0,54,0.00,,,0.00,0.000000,,2013-08-27 11:52:00,
2013-08-27 05:02:00,70.0,53.0,-100.00,NE,55,2.0,6.0,54,0.00,,,0.00,0.000000,,2013-08-27 12:02:00,
2013-08-27 05:11:00,70.0,53.0,-100.00,NE,55,2.0,6.0,54,0.00,,,0.00,0.000000,,2013-08-27 12:11:00,
2013-08-27 05:42:00,70.0,54.0,-100.00,NNW,339,1.0,3.0,57,0.00,,,0.00,0.000000,,2013-08-27 12:42:00,
2013-08-27 05:52:00,70.0,54.0,-100.00,NNW,339,1.0,3.0,57,0.00,,,0.00,0.000000,,2013-08-27 12:52:00,
2013-08-27 06:01:00,70.0,54.0,-100.00,NNW,339,1.0,3.0,57,0.00,,,0.00,0.000000,,2013-08-27 13:01:00,
2013-08-27 06:11:00,70.0,54.0,-100.00,NNW,339,1.0,3.0,57,0.00,,,0.00,0.000000,,2013-08-27 13:11:00,
2013-08-27 06:42:00,70.0,55.0,-100.00,ENE,63,2.0,4.0,58,0.00,,,-99.99,0.000000,,2013-08-27 13:42:00,
2013-08-27 06:52:00,70.0,55.0,-100.00,ENE,63,2.0,4.0,58,0.00,,,-99.99,0.000000,,2013-08-27 13:52:00,
2013-08-27 07:02:00,70.0,55.0,-100.00,ENE,63,2.0,4.0,58,0.00,,,-99.99,0.000000,,2013-08-27 14:02:00,
2013-08-27 07:11:00,70.0,55.0,-100.00,ENE,63,2.0,4.0,58,0.00,,,-99.99,0.000000,,2013-08-27 14:11:00,
2013-08-27 07:42:00,73.0,57.0,-100.00,NE,48,2.0,4.0,58,0.00,,,0.00,28.000000,,2013-08-27 14:42:00,
2013-08-27 07:53:00,73.0,57.0,-100.00,NE,48,2.0,4.0,58,0.00,,,0.00,28.000000,,2013-08-27 14:53:00,
2013-08-27 08:01:00,73.0,57.0,-100.00,NE,48,2.0,4.0,58,0.00,,,0.00,28.000000,,2013-08-27 15:01:00,
2013-08-27 08:11:00,73.0,57.0,-100.00,NE,48,2.0,4.0,58,0.00,,,0.00,28.000000,,2013-08-27 15:11:00,
2013-08-27 09:13:00,81.0,56.0,-100.00,SSW,201,6.0,9.0,43,-99.99,,,0.00,258.000000,,2013-08-27 16:13:00,
2013-08-27 10:43:00,85.0,56.0,-100.00,WSW,256,4.0,7.0,37,0.00,,,0.00,410.000000,,2013-08-27 17:43:00,
2013-08-27 10:52:00,85.0,56.0,-100.00,WSW,256,4.0,7.0,37,0.00,,,0.00,410.000000,,2013-08-27 17:52:00,
2013-08-27 11:02:00,85.0,56.0,-100.00,WSW,256,4.0,7.0,37,0.00,,,0.00,410.000000,,2013-08-27 18:02:00,
2013-08-27 11:12:00,85.0,56.0,-100.00,WSW,256,4.0,7.0,37,0.00,,,0.00,410.000000,,2013-08-27 18:12:00,
2013-08-27 11:42:00,88.0,55.0,-100.00,WSW,238,5.0,9.0,33,0.00,,,0.00,589.000000,,2013-08-27 18:42:00,
2013-08-27 11:52:00,88.0,55.0,-100.00,WSW,238,5.0,9.0,33,0.00,,,0.00,589.000000,,2013-08-27 18:52:00,
2013-08-27 12:01:00,88.0,55.0,-100.00,WSW,238,5.0,9.0,33,0.00,,,0.00,589.000000,,2013-08-27 19:01:00,
2013-08-27 12:11:00,88.0,55.0,-100.00,WSW,238,5.0,9.0,33,0.00,,,0.00,589.000000,,2013-08-27 19:11:00,
2013-08-27 12:42:00,91.0,54.0,-100.00,WSW,238,6.0,10.0,29,0.00,,,0.00,884.000000,,2013-08-27 19:42:00,
2013-08-27 12:52:00,91.0,54.0,-100.00,WSW,238,6.0,10.0,29,0.00,,,0.00,884.000000,,2013-08-27 19:52:00,
2013-08-27 13:02:00,91.0,54.0,-100.00,WSW,238,6.0,10.0,29,0.00,,,0.00,884.000000,,2013-08-27 20:02:00,
2013-08-27 13:11:00,91.0,54.0,-100.00,WSW,238,6.0,10.0,29,0.00,,,0.00,884.000000,,2013-08-27 20:11:00,